Time;durP1;ratioP1;P1;durP2;ratioP2;P2;SDS_P1;SDS_P2;PMS_P1;PMS_P2;Temp;Humidity;BMP_temperature;BMP_pressure;BME280_temperature;BME280_humidity;BME280_pressure;Samples;Min_cycle;Max_cycle;Signal;HPM_P1;HPM_P2
2023/07/01 00:01:42;;;;;;;0.00;0.00;;;;;;;17.15;80.56;96984.41;5040043;28;20033;-73
2023/07/01 00:04:12;;;;;;;0.00;0.00;;;;;;;17.21;80.02;96979.91;5041746;28;20566;-73
2023/07/01 00:06:41;;;;;;;0.10;0.10;;;;;;;17.14;80.66;96977.38;5041279;28;20037;-75
2023/07/01 00:09:10;;;;;;;0.00;0.00;;;;;;;17.12;80.95;96971.44;5041330;28;20045;-75
2023/07/01 00:11:37;;;;;;;0.03;0.03;;;;;;;17.13;81.01;96973.06;5040383;28;20037;-74
2023/07/01 00:14:05;;;;;;;0.20;0.20;;;;;;;17.12;80.91;96965.25;5041981;28;20475;-73
2023/07/01 00:16:33;;;;;;;0.20;0.20;;;;;;;17.18;81.16;96967.72;5041640;28;20053;-73
2023/07/01 00:19:02;;;;;;;0.10;0.10;;;;;;;17.13;81.02;96967.66;5042074;28;20045;-74
2023/07/01 00:21:29;;;;;;;0.10;0.10;;;;;;;16.96;81.57;96964.22;5041191;28;20492;-73
2023/07/01 00:23:57;;;;;;;0.10;0.10;;;;;;;17.01;82.07;96961.59;5041341;28;20590;-73
2023/07/01 00:26:25;;;;;;;0.10;0.10;;;;;;;17.03;81.37;96959.44;5042434;28;20060;-75
2023/07/01 00:28:53;;;;;;;0.03;0.03;;;;;;;17.11;81.40;96952.81;5039479;28;20144;-73
2023/07/01 00:31:21;;;;;;;0.00;0.00;;;;;;;17.15;81.35;96952.03;5040891;28;20056;-72
2023/07/01 00:33:49;;;;;;;0.03;0.03;;;;;;;17.21;80.97;96961.03;5040077;28;20049;-75
2023/07/01 00:36:18;;;;;;;0.10;0.10;;;;;;;17.32;80.85;96949.28;5043479;28;20045;-74
2023/07/01 00:38:45;;;;;;;0.05;0.05;;;;;;;17.44;80.43;96957.25;5039270;28;20037;-73
2023/07/01 00:41:14;;;;;;;0.10;0.10;;;;;;;17.29;79.46;96952.47;5039438;28;20283;-74
2023/07/01 00:43:42;;;;;;;0.10;0.10;;;;;;;17.29;79.89;96954.38;5041393;28;20043;-73
2023/07/01 00:46:09;;;;;;;0.00;0.00;;;;;;;17.09;80.63;96955.75;5057019;28;20037;-73
2023/07/01 00:48:39;;;;;;;0.00;0.00;;;;;;;17.38;79.52;96955.53;5038677;28;20057;-74
2023/07/01 00:51:07;;;;;;;0.10;0.10;;;;;;;17.19;80.32;96955.88;5041375;28;20440;-73
2023/07/01 00:53:37;;;;;;;0.10;0.10;;;;;;;17.11;80.41;96959.03;5040702;28;20121;-72
2023/07/01 00:56:05;;;;;;;0.00;0.00;;;;;;;16.92;81.79;96956.91;5042065;28;20063;-77
2023/07/01 00:58:33;;;;;;;0.10;0.10;;;;;;;17.01;81.12;96958.09;5040794;28;20458;-73
2023/07/01 01:01:03;;;;;;;0.10;0.10;;;;;;;17.08;81.18;96951.44;5039954;28;20049;-72
2023/07/01 01:03:35;;;;;;;0.10;0.10;;;;;;;17.11;81.11;96947.44;5041050;28;20042;-72
2023/07/01 01:06:08;;;;;;;0.05;0.05;;;;;;;17.00;81.37;96946.50;5040723;28;20056;-73
2023/07/01 01:08:42;;;;;;;0.20;0.20;;;;;;;17.06;81.46;96944.66;5042515;28;20128;-72
2023/07/01 01:11:10;;;;;;;0.10;0.10;;;;;;;17.13;81.15;96946.09;5040066;28;20041;-72
2023/07/01 01:13:38;;;;;;;0.10;0.10;;;;;;;16.78;81.63;96943.78;5039683;28;20604;-73
2023/07/01 01:16:06;;;;;;;0.05;0.05;;;;;;;16.79;82.20;96941.91;5040047;28;20308;-72
2023/07/01 01:18:34;;;;;;;0.10;0.10;;;;;;;16.75;82.83;96938.06;5039390;28;20047;-73
2023/07/01 01:21:02;;;;;;;0.00;0.00;;;;;;;16.79;82.40;96934.63;5038592;28;20517;-75
2023/07/01 01:23:33;;;;;;;0.10;0.10;;;;;;;16.75;82.45;96943.47;5043945;28;20479;-73
2023/07/01 01:26:06;;;;;;;0.10;0.10;;;;;;;16.45;83.98;96933.06;5044326;28;20074;-73
2023/07/01 01:28:35;;;;;;;0.08;0.08;;;;;;;16.59;83.74;96931.66;5045436;28;20111;-73
2023/07/01 01:31:04;;;;;;;0.08;0.08;;;;;;;16.65;82.89;96927.16;5043304;28;20423;-75
2023/07/01 01:33:33;;;;;;;0.10;0.10;;;;;;;16.80;82.56;96924.69;5046166;28;20033;-74
2023/07/01 01:36:06;;;;;;;0.00;0.00;;;;;;;16.92;82.55;96929.94;5045143;28;20056;-73
2023/07/01 01:38:35;;;;;;;0.10;0.10;;;;;;;16.86;81.65;96926.34;5044697;28;20045;-73
2023/07/01 01:41:07;;;;;;;0.10;0.10;;;;;;;16.84;82.07;96918.50;5045318;28;20045;-74
2023/07/01 01:43:41;;;;;;;0.10;0.10;;;;;;;16.75;82.75;96911.13;5043618;28;20492;-73
2023/07/01 01:46:09;;;;;;;0.10;0.10;;;;;;;16.78;82.73;96916.84;5045712;28;20068;-74
2023/07/01 01:48:38;;;;;;;0.20;0.20;;;;;;;16.92;82.85;96908.38;5044476;28;20036;-73
2023/07/01 01:51:06;;;;;;;0.10;0.10;;;;;;;16.90;82.88;96902.41;5045393;28;20037;-73
2023/07/01 01:53:36;;;;;;;0.00;0.00;;;;;;;16.78;83.26;96902.53;5045831;28;20041;-75
2023/07/01 01:56:04;;;;;;;0.10;0.10;;;;;;;16.78;83.50;96903.34;5044994;28;20097;-76
2023/07/01 01:58:32;;;;;;;0.00;0.00;;;;;;;16.72;83.40;96900.81;5066280;28;20047;-75
2023/07/01 02:01:01;;;;;;;0.03;0.03;;;;;;;16.74;83.33;96896.00;5043048;28;20053;-76
2023/07/01 02:03:29;;;;;;;0.08;0.08;;;;;;;16.79;83.06;96894.22;5045705;28;20041;-74
2023/07/01 02:05:57;;;;;;;0.00;0.00;;;;;;;16.79;82.14;96894.22;5044022;28;20045;-73
2023/07/01 02:08:24;;;;;;;0.00;0.00;;;;;;;16.73;82.30;96895.19;5046362;28;20047;-74
2023/07/01 02:10:52;;;;;;;0.10;0.10;;;;;;;16.71;82.15;96891.97;5044175;28;20059;-78
2023/07/01 02:13:20;;;;;;;0.10;0.10;;;;;;;16.73;82.33;96887.09;5046076;28;20042;-75
2023/07/01 02:15:47;;;;;;;0.20;0.20;;;;;;;16.79;82.25;96885.31;5045594;28;20431;-75
2023/07/01 02:18:16;;;;;;;0.10;0.10;;;;;;;16.85;81.82;96882.41;5061860;28;20430;-80
2023/07/01 02:20:44;;;;;;;0.10;0.10;;;;;;;16.71;82.20;96891.97;5043931;28;20119;-74
2023/07/01 02:23:12;;;;;;;0.10;0.10;;;;;;;16.82;81.71;96893.69;5045236;28;20055;-73
2023/07/01 02:25:39;;;;;;;0.10;0.10;;;;;;;16.59;82.05;96895.81;5044666;28;20519;-74
2023/07/01 02:28:07;;;;;;;0.00;0.00;;;;;;;16.45;82.30;96896.16;5042992;28;20052;-75
2023/07/01 02:30:35;;;;;;;0.00;0.00;;;;;;;16.48;81.89;96897.53;5043320;28;20072;-76
2023/07/01 02:33:03;;;;;;;0.10;0.10;;;;;;;16.41;82.24;96892.31;5041938;28;20061;-75
2023/07/01 02:35:32;;;;;;;0.10;0.10;;;;;;;16.39;82.55;96901.75;5058567;28;20040;-75
2023/07/01 02:38:00;;;;;;;0.20;0.20;;;;;;;16.32;83.06;96893.81;5044056;28;20045;-75
2023/07/01 02:40:27;;;;;;;0.00;0.00;;;;;;;16.32;82.99;96891.13;5041989;28;20514;-75
2023/07/01 02:42:55;;;;;;;0.10;0.10;;;;;;;16.01;84.49;96887.19;5042370;28;20582;-75
2023/07/01 02:45:23;;;;;;;0.00;0.00;;;;;;;16.03;84.54;96889.63;5042943;28;20139;-75
2023/07/01 02:47:50;;;;;;;0.22;0.22;;;;;;;16.03;84.39;96893.13;5044221;28;20331;-76
2023/07/01 02:50:18;;;;;;;0.10;0.10;;;;;;;15.94;84.59;96889.22;5043704;28;20049;-76
2023/07/01 02:52:47;;;;;;;0.30;0.20;;;;;;;15.88;85.02;96894.78;5058422;28;20135;-76
2023/07/01 02:55:15;;;;;;;0.32;0.20;;;;;;;15.88;84.81;96881.34;5043619;28;20080;-76
2023/07/01 02:57:42;;;;;;;0.32;0.20;;;;;;;15.79;84.90;96883.59;5043155;28;20065;-75
2023/07/01 03:00:12;;;;;;;0.00;0.00;;;;;;;15.77;85.08;96886.56;5043640;28;20102;-75
2023/07/01 03:02:40;;;;;;;0.10;0.10;;;;;;;15.79;84.70;96883.59;5041015;28;20204;-74
2023/07/01 03:05:09;;;;;;;0.10;0.10;;;;;;;15.76;84.48;96884.09;5043330;28;20056;-74
2023/07/01 03:07:37;;;;;;;0.10;0.10;;;;;;;15.40;85.69;96891.53;5039987;28;20037;-74
2023/07/01 03:10:07;;;;;;;0.10;0.10;;;;;;;15.15;86.33;96892.97;5039117;28;20135;-75
2023/07/01 03:12:35;;;;;;;0.10;0.10;;;;;;;15.28;86.42;96884.59;5042272;28;20059;-75
2023/07/01 03:15:03;;;;;;;0.10;0.10;;;;;;;15.41;85.59;96885.09;5040785;28;20041;-75
2023/07/01 03:17:31;;;;;;;0.10;0.10;;;;;;;15.46;85.19;96887.09;5042434;28;20041;-75
2023/07/01 03:19:58;;;;;;;0.03;0.03;;;;;;;15.59;84.65;96881.41;5042338;28;20040;-77
2023/07/01 03:22:26;;;;;;;0.10;0.10;;;;;;;15.56;84.66;96881.09;5064660;28;20045;-76
2023/07/01 03:24:54;;;;;;;0.10;0.10;;;;;;;15.56;84.11;96884.59;5044528;28;20069;-76
2023/07/01 03:27:22;;;;;;;0.20;0.20;;;;;;;15.37;84.62;96883.13;5042487;28;20458;-76
2023/07/01 03:29:50;;;;;;;0.10;0.10;;;;;;;15.20;85.47;96887.69;5041529;28;20530;-76
2023/07/01 03:32:18;;;;;;;0.03;0.03;;;;;;;15.28;85.05;96885.41;5043083;28;20045;-75
2023/07/01 03:34:45;;;;;;;0.10;0.10;;;;;;;15.29;84.83;96892.41;5042169;28;20049;-76
2023/07/01 03:37:15;;;;;;;0.05;0.05;;;;;;;15.15;85.05;96890.28;5041030;28;20056;-80
2023/07/01 03:39:42;;;;;;;0.10;0.10;;;;;;;15.00;85.69;96893.50;5041651;28;20056;-75
2023/07/01 03:42:10;;;;;;;0.00;0.00;;;;;;;14.96;85.73;96893.13;5043226;28;20041;-76
2023/07/01 03:44:39;;;;;;;0.10;0.10;;;;;;;14.94;86.32;96894.47;5041331;28;20534;-76
2023/07/01 03:47:06;;;;;;;0.00;0.00;;;;;;;14.99;86.03;96892.66;5042648;28;20108;-75
2023/07/01 03:49:34;;;;;;;0.10;0.10;;;;;;;14.99;85.80;96899.91;5042510;28;20523;-75
2023/07/01 03:52:03;;;;;;;0.10;0.10;;;;;;;14.88;86.32;96898.91;5041483;28;20411;-76
2023/07/01 03:54:31;;;;;;;0.10;0.10;;;;;;;14.85;86.72;96895.88;5042590;28;20033;-74
2023/07/01 03:56:58;;;;;;;0.10;0.10;;;;;;;14.90;86.42;96904.03;5040760;28;20048;-76
2023/07/01 03:59:26;;;;;;;0.00;0.00;;;;;;;14.96;86.08;96903.88;5042375;28;20037;-76
2023/07/01 04:01:55;;;;;;;0.10;0.10;;;;;;;14.92;86.15;96899.25;5041059;28;20440;-74
2023/07/01 04:04:22;;;;;;;0.10;0.10;;;;;;;14.88;86.15;96900.78;5041030;28;20076;-75
2023/07/01 04:06:54;;;;;;;0.13;0.13;;;;;;;14.85;86.81;96901.25;5041422;28;20132;-77
2023/07/01 04:09:22;;;;;;;0.10;0.10;;;;;;;14.83;86.63;96900.69;5039447;28;20075;-76
2023/07/01 04:11:51;;;;;;;0.10;0.10;;;;;;;14.94;86.14;96905.22;5041169;28;20040;-73
2023/07/01 04:14:19;;;;;;;0.05;0.05;;;;;;;14.84;86.59;96907.69;5040896;28;20057;-73
2023/07/01 04:16:46;;;;;;;0.00;0.00;;;;;;;14.91;86.33;96909.19;5041095;28;20064;-73
2023/07/01 04:19:18;;;;;;;0.10;0.10;;;;;;;14.78;87.07;96906.75;5040746;28;20048;-74
2023/07/01 04:21:45;;;;;;;0.10;0.10;;;;;;;14.86;86.82;96909.06;5040727;28;20060;-75
2023/07/01 04:24:13;;;;;;;0.10;0.10;;;;;;;14.98;86.22;96907.16;5040953;28;20038;-76
2023/07/01 04:26:41;;;;;;;0.10;0.10;;;;;;;14.98;86.16;96907.16;5042637;28;20049;-78
2023/07/01 04:29:09;;;;;;;0.00;0.00;;;;;;;14.94;86.28;96910.59;5042626;28;20065;-77
2023/07/01 04:31:37;;;;;;;0.05;0.05;;;;;;;15.07;85.91;96904.91;5041242;28;20523;-77
2023/07/01 04:34:04;;;;;;;0.10;0.10;;;;;;;15.10;85.68;96907.13;5041572;28;20044;-76
2023/07/01 04:36:33;;;;;;;0.10;0.10;;;;;;;15.09;85.64;96907.34;5039548;28;20065;-76
2023/07/01 04:39:01;;;;;;;0.00;0.00;;;;;;;15.11;85.63;96910.63;5040476;28;20049;-74
2023/07/01 04:41:28;;;;;;;0.10;0.10;;;;;;;15.11;85.66;96897.19;5040914;28;20045;-73
2023/07/01 04:43:56;;;;;;;0.13;0.13;;;;;;;15.09;85.74;96896.59;5040996;28;20415;-74
2023/07/01 04:46:24;;;;;;;0.20;0.20;;;;;;;15.06;85.73;96897.88;5041543;28;20052;-74
2023/07/01 04:48:52;;;;;;;0.10;0.10;;;;;;;15.11;85.67;96897.19;5041011;28;20045;-74
2023/07/01 04:51:19;;;;;;;0.10;0.10;;;;;;;15.20;85.54;96899.25;5040876;28;20522;-77
2023/07/01 04:53:48;;;;;;;0.20;0.20;;;;;;;15.26;85.62;96902.84;5041702;28;20037;-74
2023/07/01 04:56:16;;;;;;;0.10;0.10;;;;;;;15.28;85.11;96901.53;5042604;28;20528;-75
2023/07/01 04:58:43;;;;;;;0.10;0.10;;;;;;;15.33;84.71;96900.81;5046879;28;20037;-73
2023/07/01 05:01:11;;;;;;;0.10;0.10;;;;;;;15.31;84.69;96908.31;5046210;28;20518;-73
2023/07/01 05:03:38;;;;;;;0.10;0.10;;;;;;;15.21;84.70;96894.69;5046197;28;20037;-75
2023/07/01 05:06:06;;;;;;;0.10;0.10;;;;;;;15.29;84.57;96902.34;5047701;28;20139;-75
2023/07/01 05:08:34;;;;;;;0.38;0.38;;;;;;;15.22;83.73;96897.13;5046416;28;20119;-75
2023/07/01 05:11:03;;;;;;;0.10;0.10;;;;;;;15.15;84.53;96895.66;5045980;28;20067;-73
2023/07/01 05:13:30;;;;;;;0.10;0.10;;;;;;;15.18;84.08;96903.22;5047056;28;20599;-78
2023/07/01 05:15:58;;;;;;;0.10;0.10;;;;;;;15.10;83.86;96899.06;5045657;28;20570;-75
2023/07/01 05:18:25;;;;;;;0.10;0.10;;;;;;;15.13;83.84;96900.47;5044358;28;20048;-75
2023/07/01 05:20:53;;;;;;;0.10;0.10;;;;;;;15.10;84.27;96898.25;5044970;28;20045;-75
2023/07/01 05:23:20;;;;;;;0.10;0.10;;;;;;;15.21;84.06;96903.56;5043993;28;20862;-75
2023/07/01 05:25:48;;;;;;;0.10;0.10;;;;;;;15.29;83.93;96900.47;5045928;28;20049;-76
2023/07/01 05:28:17;;;;;;;0.10;0.10;;;;;;;15.25;83.33;96903.91;5044614;28;20080;-76
2023/07/01 05:30:46;;;;;;;0.10;0.10;;;;;;;15.28;83.34;96903.41;5048272;28;20063;-80
2023/07/01 05:33:14;;;;;;;0.10;0.10;;;;;;;15.35;82.99;96898.72;5048013;28;20400;-76
2023/07/01 05:35:42;;;;;;;0.20;0.20;;;;;;;15.41;82.97;96906.63;5046691;28;20048;-77
2023/07/01 05:38:10;;;;;;;0.00;0.00;;;;;;;15.49;82.67;96891.94;5046361;28;20059;-76
2023/07/01 05:40:38;;;;;;;0.00;0.00;;;;;;;15.57;82.32;96890.78;5051342;28;20045;-76
2023/07/01 05:43:06;;;;;;;0.00;0.00;;;;;;;15.64;82.05;96889.56;5046865;28;20052;-77
2023/07/01 05:45:35;;;;;;;0.20;0.20;;;;;;;15.66;82.46;96895.53;5041361;28;20049;-75
2023/07/01 05:48:03;;;;;;;0.10;0.10;;;;;;;15.71;81.26;96890.22;5043574;28;20045;-76
2023/07/01 05:50:30;;;;;;;0.00;0.00;;;;;;;15.78;81.55;96887.34;5042841;28;20476;-77
2023/07/01 05:52:58;;;;;;;0.10;0.10;;;;;;;15.88;80.97;96892.91;5047941;28;20057;-81
2023/07/01 05:55:25;;;;;;;0.10;0.10;;;;;;;15.83;80.36;96884.75;5046044;28;20048;-79
2023/07/01 05:57:53;;;;;;;0.10;0.10;;;;;;;15.81;80.87;96894.13;5044250;28;20067;-78
2023/07/01 06:00:21;;;;;;;0.10;0.10;;;;;;;15.93;80.71;96900.25;5044474;28;20435;-75
2023/07/01 06:02:50;;;;;;;0.10;0.10;;;;;;;16.00;80.88;96899.00;5044428;28;20077;-75
2023/07/01 06:05:18;;;;;;;0.10;0.10;;;;;;;16.07;79.66;96901.53;5043731;28;20044;-77
2023/07/01 06:07:46;;;;;;;0.10;0.10;;;;;;;16.10;79.36;96892.94;5043247;28;20037;-78
2023/07/01 06:10:13;;;;;;;0.10;0.10;;;;;;;16.13;79.46;96893.28;5044302;28;20045;-77
2023/07/01 06:12:41;;;;;;;0.10;0.10;;;;;;;16.18;78.64;96900.63;5044587;28;20051;-75
2023/07/01 06:15:10;;;;;;;0.10;0.10;;;;;;;16.21;78.03;96897.44;5044779;28;20040;-77
2023/07/01 06:17:37;;;;;;;0.08;0.08;;;;;;;16.20;78.25;96892.28;5044460;28;20045;-74
2023/07/01 06:20:08;;;;;;;0.08;0.08;;;;;;;16.25;78.22;96886.97;5042511;28;20056;-75
2023/07/01 06:22:36;;;;;;;0.20;0.20;;;;;;;16.36;78.08;96886.88;5044295;28;20075;-75
2023/07/01 06:25:04;;;;;;;0.00;0.00;;;;;;;16.37;78.12;96875.03;5044905;28;20045;-75
2023/07/01 06:27:32;;;;;;;0.10;0.10;;;;;;;16.48;77.88;96887.59;5044124;28;20048;-75
2023/07/01 06:29:59;;;;;;;0.20;0.20;;;;;;;16.63;77.14;96876.19;5042681;28;20041;-77
2023/07/01 06:32:27;;;;;;;0.05;0.05;;;;;;;16.71;76.79;96877.66;5043811;28;20045;-76
2023/07/01 06:34:55;;;;;;;0.10;0.10;;;;;;;16.82;75.98;96882.09;5042820;28;20144;-76
2023/07/01 06:37:24;;;;;;;0.10;0.10;;;;;;;16.97;75.83;96879.56;5044135;28;20059;-79
2023/07/01 06:39:52;;;;;;;0.03;0.03;;;;;;;17.08;74.77;96880.50;5042716;28;20116;-74
2023/07/01 06:42:20;;;;;;;0.10;0.10;;;;;;;17.15;74.48;96881.94;5043464;28;20046;-75
2023/07/01 06:44:47;;;;;;;0.10;0.10;;;;;;;17.20;74.45;96875.78;5044332;28;20048;-77
2023/07/01 06:47:15;;;;;;;0.10;0.10;;;;;;;17.23;74.18;96878.75;5044512;28;20049;-75
2023/07/01 06:49:42;;;;;;;0.10;0.10;;;;;;;17.27;73.48;96876.38;5043078;28;20041;-74
2023/07/01 06:52:10;;;;;;;0.10;0.10;;;;;;;17.38;73.29;96872.72;5043185;28;20132;-73
2023/07/01 06:54:39;;;;;;;0.10;0.10;;;;;;;17.55;72.80;96868.00;5044163;28;20041;-74
2023/07/01 06:57:07;;;;;;;0.10;0.10;;;;;;;17.68;71.84;96861.41;5042752;28;20505;-73
2023/07/01 06:59:34;;;;;;;0.10;0.10;;;;;;;17.93;71.61;96868.91;5041634;28;20041;-73
2023/07/01 07:02:02;;;;;;;0.10;0.10;;;;;;;18.02;70.01;96866.53;5043413;28;20420;-72
2023/07/01 07:04:29;;;;;;;0.10;0.10;;;;;;;18.05;69.66;96860.59;5042627;28;20075;-73
2023/07/01 07:06:57;;;;;;;0.00;0.00;;;;;;;18.19;68.70;96862.56;5044007;28;20435;-74
2023/07/01 07:09:24;;;;;;;0.10;0.10;;;;;;;18.22;68.80;96862.06;5043131;28;20049;-73
2023/07/01 07:11:54;;;;;;;0.10;0.10;;;;;;;18.09;68.45;96862.50;5042473;28;20052;-73
2023/07/01 07:14:22;;;;;;;0.10;0.10;;;;;;;18.19;69.09;96861.75;5045564;28;20053;-72
2023/07/01 07:16:50;;;;;;;0.10;0.10;;;;;;;18.41;69.30;96854.31;5042352;28;20045;-74
2023/07/01 07:19:18;;;;;;;0.10;0.10;;;;;;;18.62;67.00;96852.56;5041977;28;20064;-73
2023/07/01 07:21:45;;;;;;;0.00;0.00;;;;;;;18.80;65.17;96856.69;5042294;28;20045;-73
2023/07/01 07:24:13;;;;;;;0.10;0.10;;;;;;;18.89;64.71;96847.00;5043484;28;20185;-73
2023/07/01 07:26:42;;;;;;;0.10;0.10;;;;;;;19.15;63.71;96843.25;5042660;28;20408;-73
2023/07/01 07:29:11;;;;;;;0.08;0.08;;;;;;;19.15;62.89;96843.25;5043619;28;20045;-75
2023/07/01 07:31:38;;;;;;;0.10;0.00;;;;;;;19.30;62.96;96837.06;5041965;28;20037;-73
2023/07/01 07:34:06;;;;;;;0.00;0.00;;;;;;;19.45;61.47;96828.97;5043634;28;20488;-74
2023/07/01 07:36:34;;;;;;;0.03;0.03;;;;;;;19.55;60.22;96830.88;5042187;28;20048;-73
2023/07/01 07:39:02;;;;;;;0.10;0.10;;;;;;;19.55;60.43;96829.00;5042074;28;20053;-73
2023/07/01 07:41:29;;;;;;;0.00;0.00;;;;;;;19.68;59.79;96824.94;5043544;28;20036;-73
2023/07/01 07:43:57;;;;;;;0.10;0.10;;;;;;;19.78;59.61;96819.50;5042023;28;20049;-73
2023/07/01 07:46:26;;;;;;;0.03;0.03;;;;;;;19.78;59.84;96820.31;5043307;28;20419;-74
2023/07/01 07:48:54;;;;;;;0.10;0.10;;;;;;;19.88;59.09;96824.09;5040831;28;20385;-73
2023/07/01 07:51:21;;;;;;;0.10;0.10;;;;;;;19.98;59.23;96819.47;5043350;28;20385;-72
2023/07/01 07:53:49;;;;;;;0.00;0.00;;;;;;;20.11;57.97;96815.41;5042271;28;20055;-73
2023/07/01 07:56:16;;;;;;;0.10;0.10;;;;;;;20.12;57.87;96815.13;5041847;28;20057;-73
2023/07/01 07:58:44;;;;;;;0.10;0.10;;;;;;;20.37;56.99;96814.25;5042156;28;20045;-74
2023/07/01 08:01:12;;;;;;;0.10;0.10;;;;;;;20.61;56.33;96819.06;5041682;28;20060;-74
2023/07/01 08:03:41;;;;;;;0.00;0.00;;;;;;;20.44;56.18;96824.84;5044056;28;20049;-74
2023/07/01 08:06:09;;;;;;;0.10;0.10;;;;;;;20.38;57.33;96823.22;5042775;28;20071;-74
2023/07/01 08:08:36;;;;;;;0.00;0.00;;;;;;;20.52;56.54;96810.69;5041308;28;20049;-75
2023/07/01 08:11:04;;;;;;;0.10;0.10;;;;;;;20.75;56.44;96810.06;5041279;28;20048;-75
2023/07/01 08:13:31;;;;;;;0.00;0.00;;;;;;;20.70;57.00;96812.78;5042030;28;20040;-74
2023/07/01 08:15:59;;;;;;;0.10;0.10;;;;;;;21.15;55.41;96813.63;5042734;28;20056;-74
2023/07/01 08:18:27;;;;;;;0.17;0.17;;;;;;;21.20;53.70;96806.28;5041573;28;20044;-75
2023/07/01 08:20:55;;;;;;;0.10;0.10;;;;;;;21.51;52.46;96809.59;5042845;28;20037;-74
2023/07/01 08:23:23;;;;;;;0.00;0.00;;;;;;;21.34;48.97;96811.91;5045599;28;20526;-74
2023/07/01 08:25:51;;;;;;;0.00;0.00;;;;;;;21.37;49.75;96807.81;5047396;28;20045;-74
2023/07/01 08:28:18;;;;;;;0.00;0.00;;;;;;;21.35;49.89;96797.22;5045189;28;20073;-74
2023/07/01 08:30:46;;;;;;;0.05;0.05;;;;;;;21.44;49.28;96794.72;5042809;28;20037;-73
2023/07/01 08:33:14;;;;;;;0.10;0.10;;;;;;;21.42;48.53;96800.41;5047854;28;20121;-74
2023/07/01 08:35:42;;;;;;;0.10;0.10;;;;;;;21.54;50.08;96794.63;5043180;28;20052;-74
2023/07/01 08:38:11;;;;;;;0.00;0.00;;;;;;;21.51;50.45;96796.00;5043410;28;20048;-74
2023/07/01 08:40:39;;;;;;;0.00;0.00;;;;;;;21.73;48.30;96797.44;5047792;28;20033;-74
2023/07/01 08:43:08;;;;;;;0.00;0.00;;;;;;;21.76;48.08;96788.75;5048245;28;20044;-73
2023/07/01 08:45:36;;;;;;;0.03;0.03;;;;;;;21.87;48.40;96791.06;5045199;28;20045;-74
2023/07/01 08:48:06;;;;;;;0.10;0.10;;;;;;;21.79;47.68;96790.88;5044476;28;20420;-74
2023/07/01 08:50:39;;;;;;;0.00;0.00;;;;;;;22.03;46.39;96780.06;5044769;28;20091;-74
2023/07/01 08:53:07;;;;;;;0.10;0.10;;;;;;;22.16;47.15;96787.53;5041511;28;20053;-73
2023/07/01 08:55:36;;;;;;;0.00;0.00;;;;;;;21.94;45.95;96777.94;5041162;28;20055;-74
2023/07/01 08:58:04;;;;;;;0.00;0.00;;;;;;;21.99;46.54;96770.88;5040968;28;20046;-74
2023/07/01 09:00:32;;;;;;;0.10;0.10;;;;;;;22.21;46.36;96771.19;5041128;28;20048;-74
2023/07/01 09:02:59;;;;;;;0.00;0.00;;;;;;;22.47;45.79;96772.50;5040291;28;20045;-74
2023/07/01 09:05:27;;;;;;;0.00;0.00;;;;;;;22.47;44.75;96771.69;5040211;28;20037;-74
2023/07/01 09:07:55;;;;;;;0.00;0.00;;;;;;;22.48;44.46;96771.41;5039993;28;20059;-74
2023/07/01 09:10:22;;;;;;;0.10;0.10;;;;;;;22.47;44.39;96767.06;5041789;28;20053;-75
2023/07/01 09:12:51;;;;;;;0.00;0.00;;;;;;;22.00;44.69;96764.34;5040534;28;20047;-74
2023/07/01 09:15:19;;;;;;;0.00;0.00;;;;;;;22.12;44.00;96760.13;5041717;28;20127;-74
2023/07/01 09:17:46;;;;;;;0.00;0.00;;;;;;;22.33;43.34;96756.06;5042333;28;20037;-76
2023/07/01 09:20:14;;;;;;;0.00;0.00;;;;;;;22.35;43.53;96774.81;5041999;28;20120;-74
2023/07/01 09:22:45;;;;;;;0.00;0.00;;;;;;;22.19;43.12;96757.06;5040110;28;20041;-74
2023/07/01 09:25:26;;;;;;;0.00;0.00;;;;;;;22.28;40.65;96739.00;5041211;28;20050;-74
2023/07/01 09:27:54;;;;;;;0.00;0.00;;;;;;;22.28;41.99;96750.69;5041006;28;20130;-75
2023/07/01 09:30:24;;;;;;;0.00;0.00;;;;;;;22.44;41.05;96748.59;5039995;28;20524;-75
2023/07/01 09:32:52;;;;;;;0.00;0.00;;;;;;;22.27;42.36;96743.63;5041012;28;20064;-75
2023/07/01 09:35:20;;;;;;;0.00;0.00;;;;;;;22.24;42.59;96746.13;5040761;28;20076;-75
2023/07/01 09:38:02;;;;;;;0.00;0.00;;;;;;;22.28;42.23;96739.00;5040775;28;20038;-75
2023/07/01 09:40:29;;;;;;;0.00;0.00;;;;;;;22.61;41.15;96731.81;5040307;28;20119;-75
2023/07/01 09:42:58;;;;;;;0.10;0.10;;;;;;;22.73;41.76;96734.91;5042684;28;20350;-74
2023/07/01 09:45:26;;;;;;;0.00;0.00;;;;;;;22.80;40.75;96738.09;5046969;28;20128;-76
2023/07/01 09:47:54;;;;;;;0.00;0.00;;;;;;;22.85;40.94;96731.75;5044056;28;20505;-76
2023/07/01 09:50:23;;;;;;;0.10;0.10;;;;;;;23.28;40.66;96733.25;5042855;28;20053;-75
2023/07/01 09:52:53;;;;;;;0.00;0.00;;;;;;;23.41;38.89;96720.81;5043837;28;20083;-76
2023/07/01 09:55:21;;;;;;;0.00;0.00;;;;;;;23.22;40.18;96725.47;5044263;28;20095;-76
2023/07/01 09:57:48;;;;;;;0.10;0.10;;;;;;;23.37;39.34;96725.22;5043300;28;20365;-76
2023/07/01 10:00:17;;;;;;;0.10;0.10;;;;;;;23.69;38.87;96714.31;5046129;28;20408;-75
2023/07/01 10:02:46;;;;;;;0.00;0.00;;;;;;;23.69;39.40;96722.50;5044728;28;20067;-76
2023/07/01 10:05:14;;;;;;;0.10;0.10;;;;;;;23.75;40.22;96718.59;5046085;28;20052;-76
2023/07/01 10:07:42;;;;;;;0.00;0.00;;;;;;;23.54;40.51;96709.16;5045902;28;20051;-76
2023/07/01 10:10:12;;;;;;;0.03;0.03;;;;;;;23.52;38.59;96705.13;5044484;28;20520;-74
2023/07/01 10:12:41;;;;;;;0.00;0.00;;;;;;;23.39;40.32;96703.94;5043251;28;20041;-74
2023/07/01 10:15:10;;;;;;;0.00;0.00;;;;;;;23.64;40.73;96703.53;5044547;28;20044;-76
2023/07/01 10:17:49;;;;;;;0.00;0.00;;;;;;;23.76;39.23;96698.41;5044442;28;20515;-75
2023/07/01 10:20:28;;;;;;;0.03;0.03;;;;;;;23.43;40.38;96699.53;5044805;28;20041;-76
2023/07/01 10:22:56;;;;;;;0.00;0.00;;;;;;;23.34;41.02;96693.94;5046503;28;20055;-76
2023/07/01 10:25:31;;;;;;;0.00;0.00;;;;;;;23.03;42.38;96701.00;5047529;28;20057;-76
2023/07/01 10:28:07;;;;;;;0.10;0.10;;;;;;;22.88;42.95;96698.50;5045698;28;20083;-76
2023/07/01 10:31:08;;;;;;;0.00;0.00;;;;;;;23.20;42.28;96698.53;5049345;28;20069;-75
2023/07/01 10:33:54;;;;;;;0.00;0.00;;;;;;;23.50;40.35;96691.78;5043638;28;20124;-76
2023/07/01 10:36:22;;;;;;;0.00;0.00;;;;;;;23.44;40.64;96687.53;5041962;28;20156;-76
2023/07/01 10:38:50;;;;;;;0.10;0.10;;;;;;;23.86;40.50;96694.69;5043238;28;20440;-76
2023/07/01 10:41:51;;;;;;;0.00;0.00;;;;;;;23.55;38.65;96678.09;5044854;28;20071;-76
2023/07/01 10:44:24;;;;;;;0.00;0.00;;;;;;;23.16;39.54;96677.63;5043160;28;20059;-76
2023/07/01 10:47:16;;;;;;;0.00;0.00;;;;;;;22.90;40.61;96678.06;5043258;28;20041;-76
2023/07/01 10:50:05;;;;;;;0.00;0.00;;;;;;;23.02;39.90;96672.97;5042655;28;20120;-76
2023/07/01 10:52:34;;;;;;;0.00;0.00;;;;;;;23.36;40.22;96669.94;5042607;28;20084;-75
2023/07/01 10:55:02;;;;;;;0.00;0.00;;;;;;;23.76;38.26;96667.63;5042404;28;20423;-76
2023/07/01 10:57:30;;;;;;;0.00;0.00;;;;;;;23.85;38.36;96667.72;5041881;28;20055;-76
2023/07/01 11:00:37;;;;;;;0.10;0.10;;;;;;;24.08;37.62;96669.44;5040834;28;20431;-75
2023/07/01 11:03:04;;;;;;;0.00;0.00;;;;;;;23.94;37.55;96657.72;5007894;28;20060;-76
2023/07/01 11:05:33;;;;;;;0.00;0.00;;;;;;;23.71;38.05;96664.97;5037306;28;20060;-77
2023/07/01 11:08:08;;;;;;;0.00;0.00;;;;;;;23.70;37.90;96656.00;5042349;28;20052;-75
2023/07/01 11:10:36;;;;;;;0.00;0.00;;;;;;;23.86;37.64;96651.06;5042842;28;20029;-76
2023/07/01 11:13:04;;;;;;;0.00;0.00;;;;;;;23.68;39.45;96660.13;5041859;28;20432;-75
2023/07/01 11:15:32;;;;;;;0.00;0.00;;;;;;;23.59;38.01;96656.47;5041068;28;20128;-75
2023/07/01 11:18:00;;;;;;;0.00;0.00;;;;;;;23.84;38.18;96652.47;5041844;28;20090;-75
2023/07/01 11:20:48;;;;;;;0.03;0.03;;;;;;;24.17;38.48;96653.16;5043343;28;20049;-76
2023/07/01 11:23:16;;;;;;;0.00;0.00;;;;;;;24.12;38.25;96649.44;5042770;28;20576;-75
2023/07/01 11:25:43;;;;;;;0.00;0.00;;;;;;;23.71;38.29;96638.53;5042544;28;20045;-75
2023/07/01 11:28:11;;;;;;;0.00;0.00;;;;;;;23.19;39.01;96641.66;5042184;28;20420;-76
2023/07/01 11:30:39;;;;;;;0.00;0.00;;;;;;;23.22;39.05;96649.22;5047927;28;20055;-75
2023/07/01 11:33:13;;;;;;;0.00;0.00;;;;;;;23.19;39.20;96633.47;5051562;28;20049;-76
2023/07/01 11:35:51;;;;;;;0.08;0.08;;;;;;;23.14;38.65;96628.94;5051869;28;20058;-75
2023/07/01 11:38:26;;;;;;;0.00;0.00;;;;;;;23.29;38.64;96636.81;5049931;28;20423;-77
2023/07/01 11:40:53;;;;;;;0.00;0.00;;;;;;;23.41;38.42;96631.72;5047849;28;20044;-75
2023/07/01 11:43:21;;;;;;;0.00;0.00;;;;;;;23.31;38.62;96626.44;5051141;28;20072;-77